createdAt,value
2023-05-20T00:01:24.929Z,96579.06
2023-05-20T00:04:12.280Z,96570.88
2023-05-20T00:07:00.711Z,96578.91
2023-05-20T00:09:47.555Z,96595.31
2023-05-20T00:12:35.610Z,96599.09
2023-05-20T00:15:23.470Z,96602.84
2023-05-20T00:18:11.951Z,96608.59
2023-05-20T00:20:59.511Z,96601.88
2023-05-20T00:23:47.610Z,96594.78
2023-05-20T00:26:34.798Z,96589.03
2023-05-20T00:29:23.139Z,96593.78
2023-05-20T00:32:10.542Z,96595.09
2023-05-20T00:34:58.756Z,96592.00
2023-05-20T00:37:46.173Z,96597.25
2023-05-20T00:40:32.963Z,96599.25
2023-05-20T00:43:21.598Z,96594.69
2023-05-20T00:46:09.154Z,96615.38
2023-05-20T00:48:58.359Z,96604.88
2023-05-20T00:51:45.536Z,96601.09
2023-05-20T00:54:33.819Z,96600.28
2023-05-20T00:57:21.296Z,96603.06
2023-05-20T01:00:11.594Z,96595.38
2023-05-20T01:03:00.590Z,96593.06
2023-05-20T01:05:49.327Z,96598.00
2023-05-20T01:08:41.640Z,96598.31
2023-05-20T01:11:43.832Z,96596.34
2023-05-20T01:14:37.365Z,96598.97
2023-05-20T01:17:27.891Z,96591.25
2023-05-20T01:20:16.429Z,96598.81
2023-05-20T01:23:04.673Z,96595.84
2023-05-20T01:25:52.427Z,96601.44
2023-05-20T01:28:39.755Z,96600.28
2023-05-20T01:31:34.846Z,96596.38
2023-05-20T01:34:22.290Z,96589.63
2023-05-20T01:37:11.442Z,96596.69
2023-05-20T01:39:58.986Z,96596.69
2023-05-20T01:42:53.083Z,96589.13
2023-05-20T01:45:42.816Z,96585.72
2023-05-20T01:48:31.741Z,96584.72
2023-05-20T01:51:18.791Z,96583.56
2023-05-20T01:54:07.163Z,96572.41
2023-05-20T01:56:53.982Z,96566.69
2023-05-20T01:59:43.535Z,96569.50
2023-05-20T02:02:32.078Z,96566.19
2023-05-20T02:05:19.660Z,96557.19
2023-05-20T02:08:07.283Z,96563.25
2023-05-20T02:10:56.029Z,96566.88
2023-05-20T02:13:44.501Z,96560.97
2023-05-20T02:16:32.266Z,96551.47
2023-05-20T02:19:24.038Z,96553.91
2023-05-20T02:22:11.842Z,96550.97
2023-05-20T02:24:59.093Z,96558.16
2023-05-20T02:27:46.428Z,96559.78
2023-05-20T02:30:37.048Z,96565.38
2023-05-20T02:33:25.010Z,96564.88
2023-05-20T02:36:11.808Z,96566.66
2023-05-20T02:38:59.018Z,96579.00
2023-05-20T02:41:46.513Z,96578.34
2023-05-20T02:44:34.502Z,96564.25
2023-05-20T02:47:21.914Z,96565.38
2023-05-20T02:50:09.644Z,96562.59
2023-05-20T02:52:56.461Z,96556.69
2023-05-20T02:55:43.395Z,96553.78
2023-05-20T02:58:30.468Z,96545.22
2023-05-20T03:01:19.281Z,96542.13
2023-05-20T03:04:05.991Z,96543.41
2023-05-20T03:06:53.464Z,96543.91
2023-05-20T03:09:42.880Z,96544.09
2023-05-20T03:12:32.090Z,96546.38
2023-05-20T03:15:18.865Z,96547.84
2023-05-20T03:18:07.792Z,96542.75
2023-05-20T03:20:54.726Z,96548.66
2023-05-20T03:23:41.483Z,96552.44
2023-05-20T03:26:28.347Z,96547.03
2023-05-20T03:29:14.753Z,96552.75
2023-05-20T03:32:02.853Z,96556.03
2023-05-20T03:34:49.987Z,96563.91
2023-05-20T03:37:37.409Z,96557.50
2023-05-20T03:40:23.871Z,96556.72
2023-05-20T03:43:10.371Z,96551.13
2023-05-20T03:45:56.795Z,96544.09
2023-05-20T03:48:43.738Z,96551.28
2023-05-20T03:51:30.448Z,96557.38
2023-05-20T03:54:24.995Z,96554.41
2023-05-20T03:57:12.980Z,96546.72
2023-05-20T04:00:00.145Z,96556.38
2023-05-20T04:02:47.144Z,96573.22
2023-05-20T04:05:40.332Z,96571.44
2023-05-20T04:08:36.958Z,96567.69
2023-05-20T04:11:24.276Z,96574.38
2023-05-20T04:14:16.333Z,96570.97
2023-05-20T04:17:05.898Z,96555.91
2023-05-20T04:19:53.452Z,96562.94
2023-05-20T04:22:40.680Z,96563.59
2023-05-20T04:25:27.658Z,96561.28
2023-05-20T04:28:16.965Z,96565.22
2023-05-20T04:31:04.895Z,96560.16
2023-05-20T04:33:55.321Z,96549.78
2023-05-20T04:36:42.410Z,96553.72
2023-05-20T04:39:29.652Z,96552.41
2023-05-20T04:42:20.564Z,96556.50
2023-05-20T04:45:09.452Z,96559.09
2023-05-20T04:47:56.704Z,96554.34
2023-05-20T04:50:44.255Z,96552.41
2023-05-20T04:53:32.887Z,96549.44
2023-05-20T04:56:22.326Z,96545.69
2023-05-20T04:59:11.405Z,96545.84
2023-05-20T05:02:00.970Z,96540.75
2023-05-20T05:04:47.692Z,96539.59
2023-05-20T05:07:35.263Z,96541.22
2023-05-20T05:10:23.492Z,96541.53
2023-05-20T05:13:09.603Z,96540.91
2023-05-20T05:16:01.541Z,96542.34
2023-05-20T05:18:49.304Z,96547.59
2023-05-20T05:21:37.103Z,96547.72
2023-05-20T05:24:23.455Z,96541.63
2023-05-20T05:27:13.072Z,96544.41
2023-05-20T05:29:59.675Z,96540.66
2023-05-20T05:32:45.883Z,96539.50
2023-05-20T05:35:33.557Z,96544.41
2023-05-20T05:38:20.441Z,96547.84
2023-05-20T05:41:08.135Z,96548.00
2023-05-20T05:43:54.514Z,96539.97
2023-05-20T05:46:41.428Z,96538.47
2023-05-20T05:49:27.871Z,96539.78
2023-05-20T05:52:14.043Z,96544.19
2023-05-20T05:55:01.983Z,96543.31
2023-05-20T05:57:49.721Z,96555.47
2023-05-20T06:00:35.895Z,96546.59
2023-05-20T06:03:23.028Z,96551.53
2023-05-20T06:06:09.356Z,96551.34
2023-05-20T06:08:56.069Z,96551.81
2023-05-20T06:11:44.845Z,96553.75
2023-05-20T06:14:32.745Z,96547.53
2023-05-20T06:17:19.683Z,96548.50
2023-05-20T06:20:07.314Z,96544.22
2023-05-20T06:22:54.010Z,96544.97
2023-05-20T06:25:43.132Z,96532.94
2023-05-20T06:28:29.976Z,96530.97
2023-05-20T06:31:17.549Z,96541.47
2023-05-20T06:34:04.112Z,96529.28
2023-05-20T06:36:51.211Z,96531.19
2023-05-20T06:39:37.997Z,96523.63
2023-05-20T06:42:24.760Z,96525.25
2023-05-20T06:45:22.576Z,96530.06
2023-05-20T06:48:12.793Z,96529.97
2023-05-20T06:50:59.175Z,96526.69
2023-05-20T06:53:46.350Z,96523.09
2023-05-20T06:56:33.670Z,96525.91
2023-05-20T06:59:20.594Z,96516.41
2023-05-20T07:02:06.857Z,96514.97
2023-05-20T07:04:54.127Z,96522.31
2023-05-20T07:07:40.351Z,96517.00
2023-05-20T07:10:26.388Z,96519.34
2023-05-20T07:13:13.072Z,96510.69
2023-05-20T07:15:59.549Z,96509.13
2023-05-20T07:18:47.958Z,96505.66
2023-05-20T07:21:34.172Z,96489.84
2023-05-20T07:24:43.016Z,96491.16
2023-05-20T07:27:29.594Z,96493.66
2023-05-20T07:30:17.536Z,96485.81
2023-05-20T07:33:11.901Z,96468.03
2023-05-20T07:35:58.925Z,96485.81
2023-05-20T07:38:57.115Z,96481.66
2023-05-20T07:41:51.363Z,96484.97
2023-05-20T07:44:37.392Z,96473.97
2023-05-20T07:47:24.401Z,96474.56
2023-05-20T07:50:12.147Z,96481.72
2023-05-20T07:52:58.379Z,96473.38
2023-05-20T07:55:47.395Z,96474.19
2023-05-20T07:58:33.898Z,96469.31
2023-05-20T08:01:25.675Z,96464.00
2023-05-20T08:04:14.044Z,96461.94
2023-05-20T08:07:06.360Z,96463.53
2023-05-20T08:10:11.504Z,96451.91
2023-05-20T08:12:57.972Z,96465.31
2023-05-20T08:15:49.064Z,96453.75
2023-05-20T08:21:40.952Z,96451.81
2023-05-20T08:24:29.822Z,96447.41
2023-05-20T08:27:23.226Z,96440.84
2023-05-20T08:30:13.939Z,96448.59
2023-05-20T08:33:02.113Z,96439.97
2023-05-20T08:35:50.062Z,96436.72
2023-05-20T08:38:37.463Z,96431.41
2023-05-20T08:41:25.414Z,96435.66
2023-05-20T08:44:12.424Z,96433.66
2023-05-20T08:47:03.574Z,96429.38
2023-05-20T08:49:50.688Z,96430.59
2023-05-20T08:52:42.193Z,96426.00
2023-05-20T08:55:53.080Z,96429.38
2023-05-20T08:58:39.584Z,96415.03
2023-05-20T09:01:27.094Z,96414.31
2023-05-20T09:04:14.697Z,96412.41
2023-05-20T09:07:01.160Z,96419.44
2023-05-20T09:09:47.197Z,96416.41
2023-05-20T09:12:33.881Z,96418.06
2023-05-20T09:15:21.011Z,96413.28
2023-05-20T09:18:09.320Z,96415.66
2023-05-20T09:20:55.706Z,96424.31
2023-05-20T09:23:48.735Z,96415.59
2023-05-20T09:26:55.097Z,96413.38
2023-05-20T09:29:43.513Z,96407.09
2023-05-20T09:32:35.982Z,96404.28
2023-05-20T09:35:23.769Z,96398.13
2023-05-20T09:38:11.727Z,96400.00
2023-05-20T09:41:02.222Z,96398.94
2023-05-20T09:43:53.687Z,96395.47
2023-05-20T09:49:47.506Z,96387.16
2023-05-20T09:52:37.567Z,96383.63
2023-05-20T09:55:25.056Z,96377.03
2023-05-20T09:58:16.422Z,96368.03
2023-05-20T10:01:03.043Z,96366.00
2023-05-20T10:03:50.375Z,96358.16
2023-05-20T10:06:55.554Z,96354.09
2023-05-20T10:09:51.653Z,96356.59
2023-05-20T10:12:59.475Z,96352.94
2023-05-20T10:16:09.663Z,96358.81
2023-05-20T10:19:21.751Z,96354.19
2023-05-20T10:22:11.747Z,96356.59
2023-05-20T10:25:08.828Z,96357.66
2023-05-20T10:28:16.382Z,96364.00
2023-05-20T10:31:21.797Z,96344.34
2023-05-20T10:34:20.949Z,96344.22
2023-05-20T10:37:07.533Z,96347.81
2023-05-20T10:40:06.080Z,96334.59
2023-05-20T10:42:52.289Z,96341.56
2023-05-20T10:45:54.606Z,96335.91
2023-05-20T10:48:43.381Z,96332.50
2023-05-20T10:51:32.520Z,96340.47
2023-05-20T10:54:18.362Z,96338.94
2023-05-20T10:57:11.298Z,96334.69
2023-05-20T11:00:17.251Z,96322.88
2023-05-20T11:03:07.618Z,96320.81
2023-05-20T11:05:53.818Z,96325.56
2023-05-20T11:08:39.982Z,96319.69
2023-05-20T11:11:26.866Z,96321.75
2023-05-20T11:14:15.315Z,96312.00
2023-05-20T11:17:01.641Z,96307.94
2023-05-20T11:19:49.257Z,96317.34
2023-05-20T11:22:37.891Z,96312.81
2023-05-20T11:25:25.008Z,96305.38
2023-05-20T11:28:14.728Z,96298.31
2023-05-20T11:31:01.983Z,96295.81
2023-05-20T11:33:47.889Z,96310.00
2023-05-20T11:36:35.037Z,96305.31
2023-05-20T11:39:21.344Z,96297.88
2023-05-20T11:42:08.050Z,96301.47
2023-05-20T11:44:54.089Z,96294.91
2023-05-20T11:47:40.367Z,96302.44
2023-05-20T11:50:26.467Z,96296.56
2023-05-20T11:53:21.727Z,96291.78
2023-05-20T11:56:07.983Z,96293.00
2023-05-20T11:59:00.692Z,96300.09
2023-05-20T12:01:46.784Z,96295.56
2023-05-20T12:04:33.016Z,96305.03
2023-05-20T12:07:19.476Z,96294.88
2023-05-20T12:10:07.268Z,96287.00
2023-05-20T12:12:57.072Z,96287.72
2023-05-20T12:15:44.899Z,96283.44
2023-05-20T12:18:31.780Z,96288.94
2023-05-20T12:21:19.223Z,96284.44
2023-05-20T12:24:07.232Z,96287.72
2023-05-20T12:26:53.261Z,96277.41
2023-05-20T12:29:39.989Z,96279.13
2023-05-20T12:32:25.992Z,96274.81
2023-05-20T12:35:13.829Z,96275.34
2023-05-20T12:38:01.268Z,96277.31
2023-05-20T12:40:48.028Z,96273.28
2023-05-20T12:43:35.555Z,96261.53
2023-05-20T12:46:23.281Z,96264.34
2023-05-20T12:49:10.770Z,96270.31
2023-05-20T12:51:57.207Z,96260.25
2023-05-20T12:54:44.781Z,96270.66
2023-05-20T12:57:31.370Z,96264.34
2023-05-20T13:00:18.178Z,96260.44
2023-05-20T13:03:04.323Z,96261.19
2023-05-20T13:05:51.289Z,96258.88
2023-05-20T13:08:37.424Z,96246.31
2023-05-20T13:11:24.676Z,96251.84
2023-05-20T13:14:10.868Z,96248.41
2023-05-20T13:16:58.133Z,96247.38
2023-05-20T13:19:46.393Z,96248.50
2023-05-20T13:22:34.657Z,96245.16
2023-05-20T13:25:21.206Z,96227.84
2023-05-20T13:28:07.804Z,96228.63
2023-05-20T13:30:53.973Z,96234.50
2023-05-20T13:33:41.158Z,96225.06
2023-05-20T13:36:27.691Z,96223.44
2023-05-20T13:39:15.972Z,96220.06
2023-05-20T13:42:02.929Z,96231.50
2023-05-20T13:44:51.848Z,96222.72
2023-05-20T13:47:38.572Z,96219.22
2023-05-20T13:50:27.111Z,96223.50
2023-05-20T13:53:14.424Z,96223.28
2023-05-20T13:56:00.710Z,96226.88
2023-05-20T13:58:47.404Z,96218.34
2023-05-20T14:01:33.725Z,96216.13
2023-05-20T14:04:20.172Z,96221.56
2023-05-20T14:07:09.808Z,96219.41
2023-05-20T14:09:57.538Z,96217.25
2023-05-20T14:12:47.983Z,96217.53
2023-05-20T14:15:36.100Z,96207.66
2023-05-20T14:18:23.655Z,96207.78
2023-05-20T14:21:11.664Z,96201.84
2023-05-20T14:23:59.371Z,96195.81
2023-05-20T14:26:45.493Z,96199.50
2023-05-20T14:29:32.715Z,96189.00
2023-05-20T14:32:18.884Z,96184.16
2023-05-20T14:35:06.282Z,96190.75
2023-05-20T14:37:52.858Z,96179.59
2023-05-20T14:40:39.049Z,96181.22
2023-05-20T14:43:25.925Z,96184.94
2023-05-20T14:46:12.948Z,96186.34
2023-05-20T14:48:59.214Z,96180.81
2023-05-20T14:51:46.325Z,96174.47
2023-05-20T14:54:35.678Z,96181.88
2023-05-20T14:57:22.214Z,96179.44
2023-05-20T15:00:09.621Z,96184.34
2023-05-20T15:02:56.339Z,96181.66
2023-05-20T15:06:03.696Z,96188.13
2023-05-20T15:08:51.993Z,96178.06
2023-05-20T15:11:40.062Z,96179.13
2023-05-20T15:14:30.142Z,96182.13
2023-05-20T15:17:16.424Z,96173.88
2023-05-20T15:20:03.391Z,96182.78
2023-05-20T15:22:52.345Z,96168.44
2023-05-20T15:25:42.568Z,96184.56
2023-05-20T15:28:29.179Z,96189.41
2023-05-20T15:31:15.714Z,96177.47
2023-05-20T15:34:01.942Z,96171.38
2023-05-20T15:36:51.546Z,96170.44
2023-05-20T15:39:38.923Z,96163.16
2023-05-20T15:42:25.906Z,96155.16
2023-05-20T15:45:17.829Z,96150.03
2023-05-20T15:48:04.481Z,96146.22
2023-05-20T15:50:50.805Z,96139.03
2023-05-20T15:53:40.035Z,96133.56
2023-05-20T15:56:27.471Z,96140.72
2023-05-20T15:59:14.397Z,96123.84
2023-05-20T16:02:00.230Z,96140.19
2023-05-20T16:04:47.137Z,96143.47
2023-05-20T16:07:33.242Z,96142.88
2023-05-20T16:10:20.167Z,96146.25
2023-05-20T16:13:06.777Z,96132.47
2023-05-20T16:15:57.950Z,96131.56
2023-05-20T16:18:45.424Z,96122.44
2023-05-20T16:21:32.447Z,96129.69
2023-05-20T16:24:18.490Z,96127.25
2023-05-20T16:27:07.545Z,96116.94
2023-05-20T16:29:54.004Z,96118.78
2023-05-20T16:32:41.293Z,96121.19
2023-05-20T16:35:27.291Z,96120.91
2023-05-20T16:38:14.260Z,96117.56
2023-05-20T16:41:01.509Z,96114.84
2023-05-20T16:43:48.101Z,96112.94
2023-05-20T16:46:34.729Z,96119.97
2023-05-20T16:49:21.512Z,96113.03
2023-05-20T16:52:07.978Z,96126.09
2023-05-20T16:54:54.912Z,96125.03
2023-05-20T16:57:40.942Z,96128.53
2023-05-20T17:00:27.625Z,96123.44
2023-05-20T17:03:14.455Z,96132.53
2023-05-20T17:06:03.142Z,96137.13
2023-05-20T17:08:48.940Z,96132.47
2023-05-20T17:11:36.237Z,96136.66
2023-05-20T17:14:22.453Z,96136.97
2023-05-20T17:17:09.583Z,96142.16
2023-05-20T17:19:56.239Z,96152.41
2023-05-20T17:22:42.748Z,96145.91
2023-05-20T17:25:29.241Z,96145.09
2023-05-20T17:28:16.951Z,96150.25
2023-05-20T17:31:02.892Z,96157.19
2023-05-20T17:33:50.749Z,96164.13
2023-05-20T17:36:37.851Z,96156.59
2023-05-20T17:39:24.209Z,96154.53
2023-05-20T17:42:10.743Z,96165.59
2023-05-20T17:44:57.018Z,96165.00
2023-05-20T17:47:43.024Z,96159.31
2023-05-20T17:50:29.515Z,96164.19
2023-05-20T17:53:15.939Z,96162.63
2023-05-20T17:56:02.208Z,96166.50
2023-05-20T17:58:48.292Z,96169.97
2023-05-20T18:01:37.882Z,96168.56
2023-05-20T18:04:24.022Z,96167.00
2023-05-20T18:07:13.556Z,96169.06
2023-05-20T18:09:59.777Z,96171.34
2023-05-20T18:12:46.185Z,96175.25
2023-05-20T18:15:32.152Z,96178.94
2023-05-20T18:18:18.981Z,96186.28
2023-05-20T18:21:07.820Z,96182.88
2023-05-20T18:23:54.274Z,96183.75
2023-05-20T18:26:42.863Z,96184.78
2023-05-20T18:29:30.660Z,96188.25
2023-05-20T18:32:16.869Z,96184.19
2023-05-20T18:35:03.516Z,96187.72
2023-05-20T18:37:49.644Z,96186.50
2023-05-20T18:40:36.790Z,96192.19
2023-05-20T18:43:23.295Z,96198.75
2023-05-20T18:46:10.589Z,96200.03
2023-05-20T18:48:56.710Z,96207.66
2023-05-20T18:51:43.707Z,96211.41
2023-05-20T18:54:29.796Z,96216.25
2023-05-20T18:57:17.011Z,96222.63
2023-05-20T19:00:05.508Z,96223.09
2023-05-20T19:02:52.321Z,96223.97
2023-05-20T19:05:39.036Z,96226.84
2023-05-20T19:08:27.491Z,96224.84
2023-05-20T19:11:13.716Z,96227.13
2023-05-20T19:14:00.645Z,96223.72
2023-05-20T19:16:46.703Z,96218.66
2023-05-20T19:19:33.869Z,96217.47
2023-05-20T19:22:19.947Z,96226.59
2023-05-20T19:25:07.550Z,96222.16
2023-05-20T19:27:53.594Z,96220.91
2023-05-20T19:30:42.565Z,96227.88
2023-05-20T19:33:28.590Z,96230.31
2023-05-20T19:36:15.714Z,96235.38
2023-05-20T19:39:03.594Z,96234.41
2023-05-20T19:41:50.686Z,96241.72
2023-05-20T19:44:37.466Z,96238.91
2023-05-20T19:47:27.821Z,96236.88
2023-05-20T19:50:17.732Z,96237.91
2023-05-20T19:53:08.264Z,96239.31
2023-05-20T19:55:54.750Z,96235.03
2023-05-20T19:58:41.953Z,96238.50
2023-05-20T20:01:28.609Z,96240.97
2023-05-20T20:04:17.236Z,96238.13
2023-05-20T20:07:03.683Z,96233.25
2023-05-20T20:09:52.063Z,96237.31
2023-05-20T20:12:38.957Z,96236.91
2023-05-20T20:15:27.459Z,96236.50
2023-05-20T20:18:13.230Z,96238.94
2023-05-20T20:21:01.241Z,96239.53
2023-05-20T20:23:47.187Z,96243.56
2023-05-20T20:26:34.690Z,96239.09
2023-05-20T20:29:24.765Z,96243.16
2023-05-20T20:32:11.818Z,96244.59
2023-05-20T20:34:59.041Z,96244.19
2023-05-20T20:37:45.196Z,96238.47
2023-05-20T20:40:33.515Z,96239.88
2023-05-20T20:43:21.121Z,96243.13
2023-05-20T20:46:07.654Z,96236.22
2023-05-20T20:48:54.403Z,96232.38
2023-05-20T20:51:40.717Z,96222.19
2023-05-20T20:54:27.471Z,96223.81
2023-05-20T20:57:20.549Z,96228.22
2023-05-20T21:00:17.590Z,96225.97
2023-05-20T21:03:04.739Z,96228.81
2023-05-20T21:05:52.339Z,96229.41
2023-05-20T21:08:38.533Z,96228.53
2023-05-20T21:11:28.652Z,96226.44
2023-05-20T21:14:15.419Z,96225.41
2023-05-20T21:17:01.371Z,96226.78
2023-05-20T21:19:47.948Z,96221.72
2023-05-20T21:22:33.952Z,96224.38
2023-05-20T21:25:20.061Z,96223.53
2023-05-20T21:28:06.149Z,96221.47
2023-05-20T21:30:52.523Z,96213.97
2023-05-20T21:33:38.593Z,96211.13
2023-05-20T21:36:26.108Z,96202.22
2023-05-20T21:39:11.818Z,96214.41
2023-05-20T21:41:58.264Z,96212.78
2023-05-20T21:44:44.316Z,96212.16
2023-05-20T21:47:31.729Z,96210.94
2023-05-20T21:50:17.876Z,96209.34
2023-05-20T21:53:03.632Z,96210.13
2023-05-20T21:55:50.550Z,96218.84
2023-05-20T21:58:41.338Z,96210.94
2023-05-20T22:01:27.876Z,96211.38
2023-05-20T22:04:15.180Z,96209.38
2023-05-20T22:07:02.040Z,96212.25
2023-05-20T22:09:48.041Z,96207.97
2023-05-20T22:12:36.060Z,96212.25
2023-05-20T22:15:22.972Z,96203.91
2023-05-20T22:18:10.138Z,96210.63
2023-05-20T22:20:59.296Z,96208.81
2023-05-20T22:23:45.114Z,96207.81
2023-05-20T22:26:33.686Z,96206.81
2023-05-20T22:29:20.987Z,96200.91
2023-05-20T22:32:07.909Z,96197.63
2023-05-20T22:34:58.384Z,96204.13
2023-05-20T22:37:45.322Z,96194.78
2023-05-20T22:40:31.745Z,96193.34
2023-05-20T22:43:18.800Z,96189.28
2023-05-20T22:46:05.057Z,96186.63
2023-05-20T22:48:55.567Z,96184.84
2023-05-20T22:51:42.248Z,96191.28
2023-05-20T22:54:28.293Z,96192.31
2023-05-20T22:57:14.498Z,96190.69
2023-05-20T23:00:00.881Z,96182.38
2023-05-20T23:02:50.264Z,96177.69
2023-05-20T23:05:36.709Z,96171.19
2023-05-20T23:08:23.139Z,96168.72
2023-05-20T23:11:08.793Z,96167.72
2023-05-20T23:13:55.846Z,96167.94
2023-05-20T23:16:42.296Z,96172.16
2023-05-20T23:19:29.092Z,96177.81
2023-05-20T23:22:15.517Z,96172.75
2023-05-20T23:25:02.435Z,96172.56
2023-05-20T23:27:48.852Z,96181.28
2023-05-20T23:30:36.468Z,96175.38
2023-05-20T23:33:25.648Z,96178.25
2023-05-20T23:36:12.573Z,96168.28
2023-05-20T23:38:59.287Z,96172.13
2023-05-20T23:41:45.073Z,96163.59
2023-05-20T23:44:32.112Z,96164.19
2023-05-20T23:47:18.786Z,96161.75
2023-05-20T23:50:05.528Z,96161.91
2023-05-20T23:52:51.537Z,96159.88
2023-05-20T23:55:37.957Z,96163.50
2023-05-20T23:58:25.096Z,96154.38
